createdAt,value
2018-01-22T00:02:07.943Z,86.79
2018-01-22T00:04:34.868Z,87.06
2018-01-22T00:07:03.987Z,87.34
2018-01-22T00:09:31.639Z,87.46
2018-01-22T00:11:58.677Z,87.93
2018-01-22T00:14:25.632Z,87.84
2018-01-22T00:16:53.309Z,88.16
2018-01-22T00:19:20.225Z,87.92
2018-01-22T00:21:47.116Z,88.07
2018-01-22T00:24:14.822Z,88.12
2018-01-22T00:26:41.748Z,88.01
2018-01-22T00:29:09.471Z,87.84
2018-01-22T00:31:36.356Z,88.11
2018-01-22T00:34:09.261Z,88.04
2018-01-22T00:36:36.237Z,88.12
2018-01-22T00:39:04.068Z,88.50
2018-01-22T00:41:30.925Z,88.45
2018-01-22T00:43:57.822Z,88.30
2018-01-22T00:46:24.736Z,88.32
2018-01-22T00:48:51.717Z,88.56
2018-01-22T00:51:18.699Z,88.48
2018-01-22T00:53:45.562Z,88.56
2018-01-22T00:56:12.479Z,89.39
2018-01-22T00:58:40.115Z,89.11
2018-01-22T01:01:07.043Z,88.66
2018-01-22T01:03:33.893Z,88.84
2018-01-22T01:06:01.530Z,88.78
2018-01-22T01:08:28.443Z,88.82
2018-01-22T01:10:55.351Z,88.67
2018-01-22T01:13:22.393Z,89.08
2018-01-22T01:15:49.313Z,88.99
2018-01-22T01:18:16.928Z,88.72
2018-01-22T01:20:43.803Z,88.90
2018-01-22T01:23:10.799Z,88.98
2018-01-22T01:25:37.725Z,88.87
2018-01-22T01:28:05.361Z,88.93
2018-01-22T01:30:32.969Z,89.02
2018-01-22T01:32:59.881Z,89.34
2018-01-22T01:35:26.771Z,89.39
2018-01-22T01:37:54.434Z,89.23
2018-01-22T01:40:21.294Z,89.53
2018-01-22T01:42:48.170Z,89.41
2018-01-22T01:45:15.800Z,89.62
2018-01-22T01:47:42.674Z,89.79
2018-01-22T01:50:09.647Z,89.74
2018-01-22T01:52:36.627Z,89.83
2018-01-22T01:55:03.521Z,89.78
2018-01-22T01:57:30.401Z,89.58
2018-01-22T01:59:57.321Z,89.22
2018-01-22T02:02:25.117Z,89.32
2018-01-22T02:04:52.873Z,89.23
2018-01-22T02:07:19.834Z,89.28
2018-01-22T02:09:47.605Z,89.31
2018-01-22T02:12:14.507Z,89.59
2018-01-22T02:14:41.622Z,89.98
2018-01-22T02:17:08.569Z,89.86
2018-01-22T02:19:35.610Z,89.86
2018-01-22T02:22:02.564Z,89.97
2018-01-22T02:24:29.543Z,89.83
2018-01-22T02:26:56.484Z,89.67
2018-01-22T02:29:23.392Z,89.90
2018-01-22T02:31:50.342Z,89.79
2018-01-22T02:34:18.294Z,89.97
2018-01-22T02:36:46.236Z,90.30
2018-01-22T02:39:13.249Z,90.35
2018-01-22T02:41:40.985Z,90.36
2018-01-22T02:44:08.058Z,90.61
2018-01-22T02:46:35.012Z,90.60
2018-01-22T02:49:02.157Z,90.89
2018-01-22T02:51:29.136Z,90.62
2018-01-22T02:53:56.318Z,90.75
2018-01-22T02:56:23.222Z,90.55
2018-01-22T02:58:50.918Z,90.46
2018-01-22T03:01:17.870Z,90.83
2018-01-22T03:03:45.572Z,90.84
2018-01-22T03:06:12.678Z,90.91
2018-01-22T03:08:39.690Z,91.25
2018-01-22T03:11:07.422Z,91.40
2018-01-22T03:13:34.419Z,91.04
2018-01-22T03:16:02.133Z,90.92
2018-01-22T03:18:29.892Z,91.31
2018-01-22T03:20:57.609Z,90.82
2018-01-22T03:23:25.462Z,90.72
2018-01-22T03:25:53.192Z,91.34
2018-01-22T03:28:20.021Z,91.28
2018-01-22T03:30:46.838Z,91.39
2018-01-22T03:33:13.717Z,90.98
2018-01-22T03:35:41.287Z,91.03
2018-01-22T03:38:08.157Z,91.21
2018-01-22T03:40:35.742Z,91.39
2018-01-22T03:43:03.410Z,91.49
2018-01-22T03:45:30.229Z,91.89
2018-01-22T03:47:57.059Z,91.97
2018-01-22T03:50:24.136Z,91.91
2018-01-22T03:52:51.089Z,92.05
2018-01-22T03:55:18.026Z,91.91
2018-01-22T03:57:46.220Z,92.24
2018-01-22T04:00:15.270Z,92.58
2018-01-22T04:02:43.518Z,92.27
2018-01-22T04:05:12.194Z,91.91
2018-01-22T04:07:39.648Z,92.37
2018-01-22T04:10:07.181Z,92.78
2018-01-22T04:12:34.844Z,92.88
2018-01-22T04:15:03.651Z,92.84
2018-01-22T04:17:32.953Z,92.65
2018-01-22T04:20:00.167Z,92.80
2018-01-22T04:22:27.841Z,92.52
2018-01-22T04:24:55.858Z,92.33
2018-01-22T04:27:23.286Z,92.15
2018-01-22T04:29:54.432Z,91.94
2018-01-22T04:32:22.594Z,92.22
2018-01-22T04:34:53.050Z,92.67
2018-01-22T04:37:23.131Z,92.66
2018-01-22T04:39:53.873Z,92.96
2018-01-22T04:42:22.275Z,92.80
2018-01-22T04:44:49.835Z,92.67
2018-01-22T04:47:20.202Z,92.27
2018-01-22T04:49:51.450Z,92.71
2018-01-22T04:52:18.574Z,92.76
2018-01-22T04:54:46.441Z,93.08
2018-01-22T04:57:13.566Z,93.46
2018-01-22T04:59:41.337Z,93.25
2018-01-22T05:02:08.400Z,93.01
2018-01-22T05:04:35.560Z,93.40
2018-01-22T05:07:03.317Z,93.52
2018-01-22T05:09:30.263Z,93.68
2018-01-22T05:11:57.249Z,93.78
2018-01-22T05:14:24.266Z,93.64
2018-01-22T05:16:51.272Z,93.45
2018-01-22T05:19:18.144Z,93.74
2018-01-22T05:21:45.081Z,94.12
2018-01-22T05:24:12.026Z,94.00
2018-01-22T05:26:38.953Z,93.94
2018-01-22T05:29:05.970Z,93.80
2018-01-22T05:31:32.878Z,93.76
2018-01-22T05:33:59.833Z,93.74
2018-01-22T05:36:31.716Z,93.71
2018-01-22T05:39:21.321Z,93.67
2018-01-22T06:04:58.273Z,94.26
2018-01-22T06:52:48.895Z,95.93
2018-01-22T06:55:17.459Z,95.95
2018-01-22T06:57:45.840Z,96.29
2018-01-22T07:00:15.435Z,96.26
2018-01-22T07:02:44.609Z,96.18
2018-01-22T07:05:13.041Z,96.31
2018-01-22T07:07:43.262Z,96.24
2018-01-22T07:31:36.701Z,96.90
2018-01-22T07:34:09.838Z,96.99
2018-01-22T07:36:39.437Z,97.10
2018-01-22T07:39:12.827Z,97.32
2018-01-22T07:41:43.601Z,97.08
2018-01-22T07:59:21.677Z,97.53
2018-01-22T08:07:18.096Z,97.88
2018-01-22T08:09:45.331Z,98.15
2018-01-22T08:12:12.662Z,98.24
2018-01-22T08:14:40.081Z,98.50
2018-01-22T08:17:07.249Z,99.06
2018-01-22T08:19:34.741Z,99.19
2018-01-22T08:22:02.853Z,99.59
2018-01-22T08:24:30.501Z,99.55
2018-01-22T08:26:57.875Z,99.57
2018-01-22T08:29:30.848Z,99.66
2018-01-22T08:31:59.272Z,99.84
2018-01-22T09:13:23.946Z,100.00
2018-01-22T09:15:51.203Z,100.00
2018-01-22T09:18:18.275Z,100.00
2018-01-22T09:20:45.357Z,100.00
2018-01-22T09:23:13.341Z,100.00
2018-01-22T09:25:40.444Z,100.00
2018-01-22T09:28:07.522Z,100.00
2018-01-22T09:30:34.661Z,100.00
2018-01-22T09:33:02.536Z,100.00
2018-01-22T09:35:30.400Z,100.00
2018-01-22T09:37:57.472Z,100.00
2018-01-22T09:40:24.724Z,100.00
2018-01-22T09:42:51.712Z,100.00
2018-01-22T09:45:19.579Z,100.00
2018-01-22T09:47:47.148Z,100.00
2018-01-22T09:50:14.428Z,100.00
2018-01-22T09:52:42.712Z,100.00
2018-01-22T09:55:09.817Z,100.00
2018-01-22T09:57:36.985Z,100.00
2018-01-22T10:00:05.132Z,100.00
2018-01-22T10:02:32.309Z,100.00
2018-01-22T10:04:59.525Z,100.00
2018-01-22T10:07:26.836Z,100.00
2018-01-22T10:09:54.193Z,100.00
2018-01-22T10:12:21.543Z,100.00
2018-01-22T10:14:48.926Z,100.00
2018-01-22T10:17:16.550Z,100.00
2018-01-22T10:19:43.708Z,100.00
2018-01-22T10:22:10.836Z,100.00
2018-01-22T10:24:43.519Z,100.00
2018-01-22T10:27:10.696Z,100.00
2018-01-22T10:29:37.962Z,100.00
2018-01-22T10:32:06.606Z,100.00
2018-01-22T10:34:33.999Z,100.00
2018-01-22T10:37:06.916Z,100.00
2018-01-22T10:39:34.234Z,100.00
2018-01-22T10:42:01.960Z,100.00
2018-01-22T10:44:29.384Z,100.00
2018-01-22T10:46:56.859Z,100.00
2018-01-22T10:49:24.079Z,100.00
2018-01-22T10:51:51.221Z,100.00
2018-01-22T10:54:18.350Z,100.00
2018-01-22T10:56:47.250Z,100.00
2018-01-22T10:59:14.368Z,100.00
2018-01-22T11:01:41.618Z,100.00
2018-01-22T11:04:08.761Z,100.00
2018-01-22T11:06:36.036Z,100.00
2018-01-22T11:09:03.982Z,100.00
2018-01-22T11:11:31.175Z,100.00
2018-01-22T11:14:01.879Z,100.00
2018-01-22T11:16:28.797Z,100.00
2018-01-22T11:18:56.443Z,100.00
2018-01-22T11:21:23.545Z,100.00
2018-01-22T11:23:51.195Z,100.00
2018-01-22T11:26:18.184Z,100.00
2018-01-22T11:28:45.921Z,100.00
2018-01-22T11:31:12.826Z,100.00
2018-01-22T11:33:39.799Z,100.00
2018-01-22T11:36:11.153Z,100.00
2018-01-22T11:38:38.802Z,100.00
2018-01-22T11:41:05.752Z,100.00
2018-01-22T11:43:32.713Z,100.00
2018-01-22T11:45:59.638Z,100.00
2018-01-22T11:48:26.632Z,100.00
2018-01-22T11:50:53.629Z,100.00
2018-01-22T12:14:52.920Z,98.42
2018-01-22T12:17:27.999Z,98.96
2018-01-22T12:19:56.687Z,97.98
2018-01-22T12:22:24.824Z,97.96
2018-01-22T12:45:35.878Z,96.32
2018-01-22T12:48:06.238Z,96.36
2018-01-22T12:50:35.123Z,96.23
2018-01-22T12:53:03.477Z,96.12
2018-01-22T12:55:32.723Z,96.12
2018-01-22T13:00:38.529Z,96.12
2018-01-22T13:03:06.810Z,96.01
2018-01-22T13:05:38.713Z,95.85
2018-01-22T13:08:13.930Z,96.05
2018-01-22T13:55:15.284Z,94.72
2018-01-22T15:37:28.478Z,96.15
2018-01-22T15:39:55.898Z,95.93
2018-01-22T15:42:24.559Z,95.82
2018-01-22T15:44:52.048Z,95.88
2018-01-22T15:47:20.655Z,95.64
2018-01-22T15:49:48.266Z,95.79
2018-01-22T15:52:15.186Z,96.04
2018-01-22T15:54:42.632Z,96.11
2018-01-22T15:57:09.587Z,96.25
2018-01-22T15:59:36.524Z,96.23
2018-01-22T16:02:03.562Z,96.36
2018-01-22T16:04:32.591Z,96.31
2018-01-22T16:06:59.646Z,96.21
2018-01-22T16:09:28.990Z,96.37
2018-01-22T16:12:26.397Z,96.21
2018-01-22T16:49:16.939Z,96.02
2018-01-22T16:51:49.769Z,96.37
2018-01-22T16:54:29.099Z,95.92
2018-01-22T16:57:01.568Z,94.65
2018-01-22T16:59:37.871Z,94.94
2018-01-22T17:02:05.360Z,94.89
2018-01-22T17:04:32.314Z,94.25
2018-01-22T17:07:07.192Z,94.27
2018-01-22T17:09:34.189Z,93.65
2018-01-22T17:12:06.422Z,93.27
2018-01-22T17:14:34.498Z,92.55
2018-01-22T17:17:01.491Z,92.75
2018-01-22T17:19:29.208Z,93.17
2018-01-22T17:21:57.803Z,92.99
2018-01-22T17:24:25.136Z,93.13
2018-01-22T17:26:53.204Z,92.86
2018-01-22T17:29:20.480Z,93.00
2018-01-22T17:31:51.189Z,93.41
2018-01-22T17:34:22.554Z,92.64
2018-01-22T17:36:59.413Z,93.39
2018-01-22T17:39:36.299Z,93.49
2018-01-22T17:42:04.807Z,92.40
2018-01-22T17:55:52.511Z,92.81
2018-01-22T17:58:21.263Z,93.54
2018-01-22T18:00:54.092Z,93.40
2018-01-22T18:06:23.391Z,94.19
2018-01-22T18:08:57.837Z,94.98
2018-01-22T18:11:31.531Z,94.87
2018-01-22T18:14:03.570Z,95.63
2018-01-22T18:16:35.870Z,95.51
2018-01-22T18:31:14.070Z,96.41
2018-01-22T18:33:43.782Z,96.68
2018-01-22T18:39:10.676Z,96.47
2018-01-22T18:41:38.252Z,97.02
2018-01-22T18:44:05.861Z,97.08
2018-01-22T18:46:34.487Z,97.33
2018-01-22T18:49:02.583Z,97.25
2018-01-22T18:51:30.242Z,97.28
2018-01-22T18:54:07.297Z,97.13
2018-01-22T18:59:22.130Z,97.40
2018-01-22T19:05:01.381Z,97.49
2018-01-22T19:07:34.628Z,97.24
2018-01-22T19:10:07.123Z,97.30
2018-01-22T19:12:42.058Z,97.55
2018-01-22T19:20:46.293Z,97.37
2018-01-22T19:29:48.825Z,97.26
2018-01-22T19:32:16.365Z,97.18
2018-01-22T19:39:51.516Z,94.16
2018-01-22T19:45:44.206Z,92.27
2018-01-22T19:48:14.073Z,91.25
2018-01-22T19:50:43.734Z,92.01
2018-01-22T19:53:12.524Z,91.97
2018-01-22T19:55:41.450Z,92.95
2018-01-22T19:58:10.389Z,92.04
2018-01-22T20:00:40.005Z,91.90
2018-01-22T20:03:08.900Z,90.97
2018-01-22T20:05:37.417Z,90.78
2018-01-22T20:08:06.902Z,90.62
2018-01-22T20:10:36.009Z,89.99
2018-01-22T20:13:05.542Z,90.11
2018-01-22T20:15:34.419Z,90.16
2018-01-22T20:18:04.699Z,90.34
2018-01-22T20:20:33.687Z,90.46
2018-01-22T20:23:02.644Z,90.83
2018-01-22T20:25:31.552Z,90.07
2018-01-22T20:28:00.547Z,90.28
2018-01-22T20:30:29.337Z,89.86
2018-01-22T20:32:57.942Z,90.03
2018-01-22T20:35:26.884Z,90.62
2018-01-22T20:37:55.608Z,90.20
2018-01-22T20:40:25.938Z,90.30
2018-01-22T20:42:54.747Z,90.73
2018-01-22T20:45:23.154Z,90.35
2018-01-22T20:47:52.645Z,89.98
2018-01-22T20:50:22.099Z,90.32
2018-01-22T20:52:50.406Z,90.41
2018-01-22T20:55:18.557Z,90.33
2018-01-22T20:57:46.658Z,90.22
2018-01-22T21:00:15.129Z,89.83
2018-01-22T21:02:43.889Z,90.02
2018-01-22T21:05:11.961Z,90.25
2018-01-22T21:07:39.770Z,90.31
2018-01-22T21:10:07.490Z,90.17
2018-01-22T21:12:36.285Z,90.83
2018-01-22T21:15:03.840Z,90.79
2018-01-22T21:17:32.585Z,90.51
2018-01-22T21:20:00.518Z,90.56
2018-01-22T21:22:27.557Z,90.57
2018-01-22T21:24:54.630Z,90.52
2018-01-22T21:27:21.831Z,90.57
2018-01-22T21:29:49.556Z,90.55
2018-01-22T21:32:17.784Z,90.68
2018-01-22T21:34:45.076Z,90.87
2018-01-22T21:37:12.002Z,90.56
2018-01-22T21:39:39.037Z,90.64
2018-01-22T21:42:05.940Z,90.68
2018-01-22T21:44:33.414Z,90.85
2018-01-22T21:47:00.298Z,90.92
2018-01-22T21:49:27.180Z,91.17
2018-01-22T21:51:56.732Z,90.79
2018-01-22T21:54:23.855Z,90.83
2018-01-22T21:56:51.492Z,90.88
2018-01-22T21:59:19.218Z,91.29
2018-01-22T22:01:47.056Z,91.26
2018-01-22T22:04:14.195Z,91.13
2018-01-22T22:06:41.574Z,91.46
2018-01-22T22:09:15.145Z,91.26
2018-01-22T22:27:37.265Z,91.24
2018-01-22T22:30:04.338Z,91.22
2018-01-22T22:32:32.025Z,91.34
2018-01-22T22:34:58.932Z,91.24
2018-01-22T22:37:25.783Z,91.28
2018-01-22T22:39:52.696Z,91.71
2018-01-22T22:42:19.534Z,91.38
2018-01-22T22:44:47.509Z,91.40
2018-01-22T22:47:14.722Z,91.32
2018-01-22T22:49:41.634Z,91.59
2018-01-22T22:52:08.479Z,91.51
2018-01-22T22:54:36.061Z,91.75
2018-01-22T22:57:02.910Z,91.45
2018-01-22T22:59:29.761Z,91.64
2018-01-22T23:01:56.666Z,91.65
2018-01-22T23:04:23.568Z,91.60
2018-01-22T23:06:50.431Z,91.72
2018-01-22T23:09:18.086Z,91.86
2018-01-22T23:11:44.924Z,91.90
2018-01-22T23:14:11.723Z,91.88
2018-01-22T23:16:38.535Z,91.71
2018-01-22T23:19:05.371Z,91.77
2018-01-22T23:21:33.056Z,91.87
2018-01-22T23:24:00.650Z,91.95
2018-01-22T23:26:28.223Z,91.88
2018-01-22T23:28:55.765Z,91.94
2018-01-22T23:31:22.553Z,91.90
2018-01-22T23:33:50.133Z,92.04
2018-01-22T23:36:16.952Z,92.15
2018-01-22T23:38:43.847Z,92.24
2018-01-22T23:41:10.684Z,92.12
2018-01-22T23:43:37.556Z,92.03
2018-01-22T23:46:04.417Z,92.21
2018-01-22T23:48:31.242Z,92.21
2018-01-22T23:50:58.101Z,92.19
2018-01-22T23:53:24.910Z,92.21
2018-01-22T23:55:51.781Z,92.18
2018-01-22T23:58:18.671Z,92.43
